createdAt,value
2018-07-20T00:01:56.421Z,100191.36
2018-07-20T00:07:00.332Z,100195.64
2018-07-20T00:12:04.146Z,100188.25
2018-07-20T00:17:07.710Z,100189.91
2018-07-20T00:22:11.414Z,100187.05
2018-07-20T00:27:15.086Z,100189.56
2018-07-20T00:32:18.582Z,100181.89
2018-07-20T00:37:22.091Z,100182.75
2018-07-20T00:42:26.074Z,100194.39
2018-07-20T00:47:29.541Z,100189.80
2018-07-20T00:52:33.492Z,100183.98
2018-07-20T00:57:37.126Z,100186.84
2018-07-20T01:02:40.609Z,100188.92
2018-07-20T01:07:44.093Z,100180.14
2018-07-20T01:12:47.616Z,100178.38
2018-07-20T01:17:51.145Z,100181.56
2018-07-20T01:22:54.621Z,100176.86
2018-07-20T01:27:58.081Z,100175.20
2018-07-20T01:33:01.828Z,100172.47
2018-07-20T01:38:05.388Z,100174.98
2018-07-20T01:43:09.888Z,100169.94
2018-07-20T01:48:13.604Z,100167.31
2018-07-20T01:53:17.321Z,100155.80
2018-07-20T01:58:20.869Z,100154.03
2018-07-20T02:03:24.305Z,100156.45
2018-07-20T02:08:28.130Z,100156.45
2018-07-20T02:13:31.674Z,100161.73
2018-07-20T02:18:35.317Z,100166.20
2018-07-20T02:23:38.937Z,100162.37
2018-07-20T02:28:42.851Z,100165.09
2018-07-20T02:33:46.515Z,100164.97
2018-07-20T02:38:50.020Z,100164.86
2018-07-20T02:43:53.742Z,100162.55
2018-07-20T02:48:57.526Z,100158.39
2018-07-20T02:54:01.078Z,100149.95
2018-07-20T02:59:04.583Z,100151.69
2018-07-20T03:04:08.157Z,100142.28
2018-07-20T03:09:13.336Z,100139.20
2018-07-20T03:14:16.900Z,100142.28
2018-07-20T03:19:20.360Z,100143.36
2018-07-20T03:24:23.981Z,100133.50
2018-07-20T03:29:27.502Z,100131.85
2018-07-20T03:34:31.229Z,100131.85
2018-07-20T03:39:34.729Z,100131.31
2018-07-20T03:44:38.329Z,100137.55
2018-07-20T03:49:41.801Z,100134.93
2018-07-20T03:54:45.889Z,100125.27
2018-07-20T03:59:49.389Z,100122.76
2018-07-20T04:04:52.874Z,100126.16
2018-07-20T04:09:56.383Z,100121.22
2018-07-20T04:15:00.245Z,100130.42
2018-07-20T04:20:04.057Z,100133.68
2018-07-20T04:25:08.501Z,100127.29
2018-07-20T04:30:14.417Z,100134.30
2018-07-20T04:35:17.873Z,100131.66
2018-07-20T04:40:21.425Z,100131.95
2018-07-20T04:45:25.251Z,100135.44
2018-07-20T04:50:28.743Z,100130.75
2018-07-20T04:55:32.275Z,100134.48
2018-07-20T05:00:36.953Z,100132.73
2018-07-20T05:05:40.412Z,100123.63
2018-07-20T05:10:43.909Z,100125.95
2018-07-20T05:15:47.536Z,100125.73
2018-07-20T05:20:51.002Z,100119.38
2018-07-20T05:25:54.565Z,100125.84
2018-07-20T05:30:58.247Z,100122.88
2018-07-20T05:36:01.938Z,100127.03
2018-07-20T05:41:05.647Z,100124.84
2018-07-20T05:46:09.098Z,100120.80
2018-07-20T05:51:12.722Z,100122.23
2018-07-20T05:56:16.234Z,100129.59
2018-07-20T06:01:19.785Z,100120.05
2018-07-20T06:06:23.298Z,100126.13
2018-07-20T06:11:27.033Z,100130.83
2018-07-20T06:16:30.566Z,100131.83
2018-07-20T06:21:34.278Z,100124.17
2018-07-20T06:26:37.838Z,100123.52
2018-07-20T06:31:41.526Z,100111.90
2018-07-20T06:36:45.079Z,100108.51
2018-07-20T06:41:49.354Z,100115.64
2018-07-20T06:46:52.965Z,100117.60
2018-07-20T06:51:56.579Z,100125.92
2018-07-20T06:57:00.873Z,100119.91
2018-07-20T07:02:05.078Z,100118.59
2018-07-20T07:07:09.005Z,100119.03
2018-07-20T07:12:12.486Z,100101.70
2018-07-20T07:17:16.016Z,100118.59
2018-07-20T07:22:19.629Z,100122.42
2018-07-20T07:27:23.065Z,100121.98
2018-07-20T07:32:26.750Z,100125.38
2018-07-20T07:37:30.299Z,100126.75
2018-07-20T07:42:33.769Z,100123.75
2018-07-20T07:47:37.233Z,100124.84
2018-07-20T07:52:40.831Z,100119.37
2018-07-20T07:57:44.329Z,100118.91
2018-07-20T08:02:48.013Z,100116.66
2018-07-20T08:07:51.629Z,100117.48
2018-07-20T08:12:55.278Z,100116.97
2018-07-20T08:17:58.805Z,100115.11
2018-07-20T08:23:02.473Z,100116.87
2018-07-20T08:28:06.072Z,100111.04
2018-07-20T08:33:09.622Z,100104.58
2018-07-20T08:38:13.188Z,100100.30
2018-07-20T08:43:16.718Z,100097.98
2018-07-20T08:48:20.485Z,100098.86
2018-07-20T08:53:24.537Z,100096.36
2018-07-20T08:58:28.338Z,100096.16
2018-07-20T09:03:32.108Z,100091.41
2018-07-20T09:08:35.866Z,100082.43
2018-07-20T09:13:40.011Z,100087.25
2018-07-20T09:18:44.181Z,100082.30
2018-07-20T09:23:47.794Z,100066.76
2018-07-20T09:28:51.822Z,100076.48
2018-07-20T09:33:55.338Z,100068.05
2018-07-20T09:38:58.967Z,100063.66
2018-07-20T09:44:02.423Z,100056.11
2018-07-20T09:49:07.232Z,100061.27
2018-07-20T09:54:11.027Z,100059.39
2018-07-20T09:59:14.507Z,100055.45
2018-07-20T10:04:18.123Z,100047.55
2018-07-20T10:09:21.637Z,100043.06
2018-07-20T10:14:25.129Z,100039.44
2018-07-20T10:19:28.619Z,100031.11
2018-07-20T10:24:32.261Z,100032.64
2018-07-20T10:29:36.056Z,100028.91
2018-07-20T10:34:40.409Z,100023.84
2018-07-20T10:39:43.891Z,100020.12
2018-07-20T10:44:47.417Z,100015.30
2018-07-20T10:49:50.949Z,100018.91
2018-07-20T10:54:54.864Z,100014.75
2018-07-20T10:59:58.881Z,100016.28
2018-07-20T11:05:02.448Z,100011.57
2018-07-20T11:10:06.577Z,100006.17
2018-07-20T11:15:10.935Z,100006.94
2018-07-20T11:20:14.448Z,100004.52
2018-07-20T11:25:18.101Z,99993.89
2018-07-20T11:30:21.606Z,99987.97
2018-07-20T11:35:25.312Z,99980.61
2018-07-20T11:40:28.850Z,99976.99
2018-07-20T11:45:32.257Z,99970.08
2018-07-20T11:50:35.865Z,99959.88
2018-07-20T11:55:39.421Z,99954.27
2018-07-20T12:00:43.105Z,99949.57
2018-07-20T12:05:47.305Z,99955.36
2018-07-20T12:10:50.780Z,99957.47
2018-07-20T12:15:54.276Z,99951.62
2018-07-20T12:20:57.898Z,99945.16
2018-07-20T12:26:01.768Z,99944.39
2018-07-20T12:31:05.546Z,99939.89
2018-07-20T12:36:08.989Z,99941.97
2018-07-20T12:41:12.997Z,99936.38
2018-07-20T12:46:16.509Z,99936.23
2018-07-20T12:51:20.035Z,99937.47
2018-07-20T12:56:23.909Z,99930.02
2018-07-20T13:01:27.741Z,99915.09
2018-07-20T13:06:31.265Z,99909.90
2018-07-20T13:11:34.752Z,99899.15
2018-07-20T13:16:38.237Z,99902.69
2018-07-20T13:21:41.794Z,99891.28
2018-07-20T13:26:45.687Z,99885.21
2018-07-20T13:31:50.368Z,99883.56
2018-07-20T13:36:54.411Z,99875.11
2018-07-20T13:41:58.278Z,99871.67
2018-07-20T13:47:03.092Z,99868.81
2018-07-20T13:52:06.805Z,99853.94
2018-07-20T13:57:10.831Z,99850.82
2018-07-20T14:02:14.277Z,99852.02
2018-07-20T14:07:17.832Z,99844.30
2018-07-20T14:12:21.297Z,99838.30
2018-07-20T14:17:24.781Z,99840.28
2018-07-20T14:22:29.022Z,99837.09
2018-07-20T14:27:33.095Z,99836.72
2018-07-20T14:32:36.890Z,99833.97
2018-07-20T14:37:40.371Z,99825.41
2018-07-20T14:42:44.360Z,99815.88
2018-07-20T14:47:47.869Z,99814.45
2018-07-20T14:52:51.689Z,99806.21
2018-07-20T14:57:55.250Z,99805.66
2018-07-20T15:02:58.857Z,99802.98
2018-07-20T15:08:02.513Z,99799.95
2018-07-20T15:13:06.167Z,99793.58
2018-07-20T15:18:09.957Z,99795.30
2018-07-20T15:23:13.669Z,99787.39
2018-07-20T15:28:17.186Z,99783.22
2018-07-20T15:33:21.449Z,99779.15
2018-07-20T15:38:24.953Z,99762.59
2018-07-20T15:43:28.542Z,99761.82
2018-07-20T15:48:32.161Z,99756.42
2018-07-20T15:53:37.226Z,99749.58
2018-07-20T15:58:39.472Z,99745.40
2018-07-20T16:03:43.117Z,99742.44
2018-07-20T16:08:46.816Z,99735.41
2018-07-20T16:13:50.731Z,99730.84
2018-07-20T16:18:54.687Z,99734.85
2018-07-20T16:23:58.728Z,99731.30
2018-07-20T16:29:02.886Z,99733.04
2018-07-20T16:34:07.070Z,99729.73
2018-07-20T16:39:11.568Z,99725.76
2018-07-20T16:44:15.589Z,99727.36
2018-07-20T16:49:19.464Z,99719.11
2018-07-20T16:54:23.385Z,99722.59
2018-07-20T16:59:27.827Z,99713.65
2018-07-20T17:04:31.635Z,99710.23
2018-07-20T17:09:35.094Z,99703.77
2018-07-20T17:14:38.548Z,99706.52
2018-07-20T17:19:42.197Z,99705.47
2018-07-20T17:24:45.821Z,99702.26
2018-07-20T17:29:49.818Z,99708.06
2018-07-20T17:34:53.549Z,99708.45
2018-07-20T17:39:57.969Z,99705.63
2018-07-20T17:45:01.915Z,99701.54
2018-07-20T17:50:06.162Z,99708.19
2018-07-20T17:55:09.860Z,99700.02
2018-07-20T18:00:13.801Z,99708.30
2018-07-20T18:05:18.119Z,99709.92
2018-07-20T18:10:23.841Z,99707.30
2018-07-20T18:15:27.520Z,99708.40
2018-07-20T18:20:32.885Z,99714.62
2018-07-20T18:25:38.289Z,99710.48
2018-07-20T18:30:42.634Z,99723.95
2018-07-20T18:35:48.654Z,99726.91
2018-07-20T18:40:54.331Z,99731.86
2018-07-20T18:45:58.669Z,99716.70
2018-07-20T18:51:03.641Z,99723.09
2018-07-20T18:56:09.351Z,99728.13
2018-07-20T19:01:15.166Z,99733.28
2018-07-20T19:06:21.809Z,99733.86
2018-07-20T19:11:27.735Z,99729.41
2018-07-20T19:16:33.963Z,99727.59
2018-07-20T19:21:40.663Z,99735.70
2018-07-20T19:26:46.075Z,99734.48
2018-07-20T19:31:51.339Z,99732.08
2018-07-20T19:36:56.271Z,99740.45
2018-07-20T19:42:01.291Z,99740.48
2018-07-20T19:47:05.275Z,99739.80
2018-07-20T19:52:09.908Z,99743.34
2018-07-20T19:57:14.721Z,99742.95
2018-07-20T20:02:20.005Z,99728.23
2018-07-20T20:07:25.213Z,99741.99
2018-07-20T20:12:30.159Z,99749.50
2018-07-20T20:17:35.581Z,99754.65
2018-07-20T20:22:40.632Z,99763.70
2018-07-20T20:27:44.738Z,99757.33
2018-07-20T20:32:48.646Z,99763.63
2018-07-20T20:37:53.576Z,99763.88
2018-07-20T20:42:57.959Z,99772.27
2018-07-20T20:48:02.262Z,99772.91
2018-07-20T20:53:07.520Z,99773.78
2018-07-20T20:58:12.648Z,99772.89
2018-07-20T21:03:16.264Z,99764.50
2018-07-20T21:08:19.988Z,99767.30
2018-07-20T21:13:23.624Z,99769.39
2018-07-20T21:18:27.116Z,99763.68
2018-07-20T21:23:30.943Z,99765.77
2018-07-20T21:28:34.952Z,99760.25
2018-07-20T21:33:38.585Z,99751.00
2018-07-20T21:38:42.405Z,99740.98
2018-07-20T21:43:46.495Z,99750.69
2018-07-20T21:48:52.108Z,99756.12
2018-07-20T21:53:55.713Z,99747.06
2018-07-20T21:58:59.449Z,99747.52
2018-07-20T22:04:04.783Z,99742.44
2018-07-20T22:09:10.867Z,99739.30
2018-07-20T22:14:15.745Z,99743.59
2018-07-20T22:19:21.278Z,99741.44
2018-07-20T22:24:25.422Z,99743.87
2018-07-20T22:29:29.133Z,99751.17
2018-07-20T22:34:32.601Z,99745.47
2018-07-20T22:39:36.099Z,99747.27
2018-07-20T22:44:42.406Z,99761.00
2018-07-20T22:49:45.895Z,99766.55
2018-07-20T22:54:49.443Z,99776.70
2018-07-20T22:59:53.172Z,99780.87
2018-07-20T23:04:56.657Z,99776.46
2018-07-20T23:10:00.427Z,99775.22
2018-07-20T23:15:04.449Z,99757.19
2018-07-20T23:20:08.688Z,99766.25
2018-07-20T23:25:12.322Z,99752.48
2018-07-20T23:30:16.326Z,99745.36
2018-07-20T23:35:22.047Z,99751.63
2018-07-20T23:40:28.122Z,99750.36
2018-07-20T23:45:33.042Z,99746.84
2018-07-20T23:50:38.457Z,99748.78
2018-07-20T23:55:41.972Z,99737.02
